Wednesday, May 23, 2018, 5:19 AM GMT
Back to Local

CYOW, Ottawa Int'L. Ont.

Location: , , Canada Lat: 45.317
Local Time: 5:19 AM GMT ( 5:19 GMT) Lon: -75.667
Time Zone: GMT Elev: 380 ft

Show me the last for .
Show Decoded

2018-05-23 05:00 METAR CYOW 230500Z 23004KT 3/8SM R07/1200FT/N FG SKC 10/10 A2989 RMK FG2 SLP123
                 =
2018-05-23 04:11 METAR CYOW 230411Z 25006KT 1/8SM R07/2800FT/N FG SKC 10/10 A2989 RMK FG4 SLP125
                 =
2018-05-23 04:00 METAR CYOW 230400Z 25004KT 3/4SM R07/2800VP6000FT/U BR SKC 11/10 A2989 RMK FG1
                 SLP124 =
2018-05-23 03:40 METAR CYOW 230340Z 25004KT 3/4SM R07/2400FT/N BR SKC 11/11 A2989 RMK FG1 SLP125
                 =
2018-05-23 03:31 METAR CYOW 230331Z 24004KT 1 1/4SM R07/2600FT/N BR SKC 11/11 A2989 RMK FG1
                 SLP125 =
2018-05-23 03:00 METAR CYOW 230300Z 26004KT 15SM R07/1600V2200FT/N MIFG FEW240 12/11 A2989 RMK
                 CI1 SLP126 =
2018-05-23 02:00 METAR CYOW 230200Z 30004KT 15SM MIFG FEW220 12/11 A2989 RMK CI1 SLP126 =
2018-05-23 01:00 METAR CYOW 230100Z 00000KT 15SM MIFG FEW040 FEW180 SCT220 14/13 A2989 RMK
                 SC1AC1CI2 SC TR SLP123 DENSITY ALT 400FT =
2018-05-23 00:00 METAR CYOW 230000Z 10003KT 15SM SCT030 BKN042 BKN220 14/13 A2989 RMK SC3SC3CI1
                 SLP123 DENSITY ALT 500FT =
2018-05-22 23:17 METAR CYOW 222317Z 13005KT 15SM FEW020 BKN029 OVC220 14/13 A2989 RMK SC1SC6CI1
                 SLP124 DENSITY ALT 500FT =
2018-05-22 23:00 METAR CYOW 222300Z 12006KT 15SM -RA SCT013 OVC030 14/13 A2989 RMK SC3SC5 SLP124
                 DENSITY ALT 500FT =
2018-05-22 22:21 METAR CYOW 222221Z 11006KT 15SM -RA BKN014 OVC020 14/13 A2989 RMK SC7SC1 SLP125
                 DENSITY ALT 500FT =
2018-05-22 22:00 METAR CYOW 222200Z 14006KT 15SM -RA OVC024 15/13 A2990 RMK SC8 SLP128 DENSITY
                 ALT 500FT =
2018-05-22 21:17 METAR CYOW 222117Z 10002KT 15SM -RA BKN023 OVC060 16/13 A2992 RMK SC6SC2 SLP133
                 DENSITY ALT 600FT =
2018-05-22 21:00 METAR CYOW 222100Z 10005KT 15SM BKN023 OVC060 16/12 A2992 RMK SC7SC1 SLP133
                 DENSITY ALT 700FT =
2018-05-22 20:00 METAR CYOW 222000Z 10005KT 15SM OVC026 17/12 A2993 RMK SC8 SLP138 DENSITY ALT
                 700FT =
2018-05-22 19:00 METAR CYOW 221900Z 00000KT 15SM OVC068 17/11 A2996 RMK AC8 SLP149 DENSITY ALT
                 700FT =
2018-05-22 18:00 METAR CYOW 221800Z 00000KT 15SM OVC096 17/13 A3001 RMK AC8 SLP165 DENSITY ALT
                 700FT =
2018-05-22 17:22 METAR CYOW 221722Z 23004KT 200V270 15SM OVC091 16/13 A3003 RMK AC8 SLP172
                 DENSITY ALT 500FT =
2018-05-22 17:00 METAR CYOW 221700Z 25003KT 15SM -RA OVC090 16/14 A3005 RMK AC8 SLP177 DENSITY
                 ALT 400FT =
2018-05-22 16:00 METAR CYOW 221600Z 21004KT 10SM -RA BKN058 OVC076 15/12 A3006 RMK SC5AC3 SLP180
                 =
2018-05-22 15:07 METAR CYOW 221507Z 16004KT 15SM -RA BKN070 BKN083 OVC120 17/10 A3004 RMK
                 AC5AC2AC1 SLP174 DENSITY ALT 600FT =
2018-05-22 15:00 METAR CYOW 221500Z 18005KT 15SM BKN072 OVC100 17/10 A3003 RMK AC7AC1 SLP173
                 DENSITY ALT 600FT =
2018-05-22 14:00 METAR CYOW 221400Z 14004KT 100V170 15SM BKN110 BKN180 18/08 A3004 RMK AC7AC1 AC
                 TR SLP174 DENSITY ALT 700FT =
2018-05-22 13:00 METAR CYOW 221300Z 00000KT 15SM SCT110 BKN150 17/07 A3005 RMK AC3AC4 SLP178
                 DENSITY ALT 600FT =
2018-05-22 12:00 METAR CYOW 221200Z 20006KT 170V230 15SM BKN160 BKN180 15/08 A3006 RMK AC5AC2
                 SLP182 =
2018-05-22 11:00 METAR CYOW 221100Z 11003KT 15SM SCT150 BKN180 13/08 A3005 RMK AC4AC3 SLP178 =
2018-05-22 10:00 METAR CYOW 221000Z 07003KT 050V120 15SM SCT160 BKN180 12/08 A3006 RMK AC3AC4
                 SLP180 =
2018-05-22 09:00 METAR CYOW 220900Z 17003KT 15SM SCT120 BKN140 12/07 A3008 RMK AC4AC2 SLP188 =
2018-05-22 08:00 METAR CYOW 220800Z 18005KT 15SM BKN180 12/08 A3008 RMK AC6 SLP190 =
2018-05-22 07:00 METAR CYOW 220700Z 18006KT 15SM SCT180 BKN210 13/08 A3010 RMK AC3CI2 SLP195 =
2018-05-22 06:00 METAR CYOW 220600Z 20005KT 15SM FEW220 13/08 A3011 RMK CI1 SLP197 =

Support USWX by starting your Amazon purchase here.